createdAt,value
2019-02-21T00:00:56.033Z,25.93
2019-02-21T00:03:26.906Z,33.77
2019-02-21T00:05:58.544Z,29.30
2019-02-21T00:08:29.104Z,31.73
2019-02-21T00:11:00.470Z,23.63
2019-02-21T00:13:31.624Z,29.43
2019-02-21T00:16:02.457Z,32.50
2019-02-21T00:18:34.380Z,29.40
2019-02-21T00:21:05.399Z,32.97
2019-02-21T00:23:36.342Z,32.10
2019-02-21T00:26:07.304Z,27.23
2019-02-21T00:28:37.914Z,27.50
2019-02-21T00:31:09.109Z,30.80
2019-02-21T00:33:40.411Z,28.47
2019-02-21T00:36:12.330Z,27.80
2019-02-21T00:38:43.295Z,29.70
2019-02-21T00:41:15.976Z,23.40
2019-02-21T00:43:46.964Z,25.07
2019-02-21T00:46:18.346Z,23.53
2019-02-21T00:48:51.105Z,23.27
2019-02-21T00:51:22.156Z,26.70
2019-02-21T00:53:53.095Z,30.10
2019-02-21T00:56:24.333Z,23.33
2019-02-21T00:58:55.234Z,21.97
2019-02-21T01:01:26.286Z,23.07
2019-02-21T01:03:57.934Z,25.30
2019-02-21T01:06:29.385Z,25.47
2019-02-21T01:09:00.408Z,15.77
2019-02-21T01:11:32.855Z,20.67
2019-02-21T01:14:04.064Z,23.53
2019-02-21T01:16:35.175Z,21.27
2019-02-21T01:19:05.860Z,17.53
2019-02-21T01:21:36.633Z,27.07
2019-02-21T01:24:07.510Z,21.90
2019-02-21T01:26:38.197Z,19.73
2019-02-21T01:29:09.038Z,19.50
2019-02-21T01:31:40.006Z,21.57
2019-02-21T01:34:10.916Z,16.60
2019-02-21T01:36:41.450Z,16.27
2019-02-21T01:39:12.134Z,19.57
2019-02-21T01:41:43.139Z,24.53
2019-02-21T01:44:14.248Z,23.17
2019-02-21T01:46:45.228Z,19.40
2019-02-21T01:49:16.303Z,20.07
2019-02-21T01:51:46.956Z,22.30
2019-02-21T01:54:17.714Z,17.90
2019-02-21T01:56:48.502Z,16.67
2019-02-21T01:59:19.444Z,18.77
2019-02-21T02:01:50.558Z,21.77
2019-02-21T02:04:21.951Z,21.70
2019-02-21T02:06:52.651Z,17.20
2019-02-21T02:09:23.649Z,20.63
2019-02-21T02:11:54.571Z,19.40
2019-02-21T02:14:25.537Z,19.30
2019-02-21T02:16:56.503Z,16.20
2019-02-21T02:19:27.501Z,19.03
2019-02-21T02:21:58.210Z,21.53
2019-02-21T02:24:29.098Z,18.57
2019-02-21T02:27:00.003Z,23.60
2019-02-21T02:29:32.314Z,21.60
2019-02-21T02:32:09.449Z,22.87
2019-02-21T02:34:38.297Z,17.37
2019-02-21T02:37:08.796Z,21.73
2019-02-21T02:39:39.685Z,20.50
2019-02-21T02:42:12.046Z,19.57
2019-02-21T02:44:42.688Z,18.60
2019-02-21T02:47:13.465Z,16.03
2019-02-21T02:49:44.916Z,20.23
2019-02-21T02:52:15.618Z,18.63
2019-02-21T02:54:46.608Z,19.23
2019-02-21T02:57:18.244Z,17.67
2019-02-21T02:59:48.959Z,22.03
2019-02-21T03:02:19.869Z,16.17
2019-02-21T03:04:50.949Z,21.07
2019-02-21T03:07:22.993Z,17.57
2019-02-21T03:09:54.017Z,22.60
2019-02-21T03:12:25.046Z,19.77
2019-02-21T03:14:55.945Z,20.27
2019-02-21T03:17:27.226Z,20.37
2019-02-21T03:19:57.836Z,17.83
2019-02-21T03:22:28.605Z,23.00
2019-02-21T03:24:59.611Z,22.77
2019-02-21T03:27:30.291Z,18.13
2019-02-21T03:30:01.442Z,33.47
2019-02-21T03:32:33.224Z,20.73
2019-02-21T03:35:04.669Z,22.80
2019-02-21T03:37:35.717Z,24.97
2019-02-21T03:40:08.879Z,30.83
2019-02-21T03:42:40.101Z,27.37
2019-02-21T03:45:13.614Z,31.80
2019-02-21T03:47:44.608Z,30.07
2019-02-21T03:50:15.965Z,28.63
2019-02-21T03:52:47.629Z,26.87
2019-02-21T03:55:19.054Z,20.67
2019-02-21T03:57:50.114Z,26.93
2019-02-21T04:00:20.855Z,18.50
2019-02-21T04:02:51.816Z,24.20
2019-02-21T04:05:22.618Z,29.77
2019-02-21T04:07:53.518Z,31.37
2019-02-21T04:10:24.147Z,24.60
2019-02-21T04:12:55.109Z,33.23
2019-02-21T04:15:25.766Z,27.80
2019-02-21T04:17:56.844Z,24.10
2019-02-21T04:20:27.608Z,26.23
2019-02-21T04:22:58.651Z,19.20
2019-02-21T04:25:29.753Z,26.27
2019-02-21T04:28:00.676Z,30.37
2019-02-21T04:30:31.608Z,36.30
2019-02-21T04:33:02.277Z,29.97
2019-02-21T04:35:33.533Z,24.37
2019-02-21T04:38:04.269Z,21.07
2019-02-21T04:40:34.845Z,22.27
2019-02-21T04:43:06.161Z,26.23
2019-02-21T04:45:37.118Z,20.20
2019-02-21T04:48:08.081Z,20.80
2019-02-21T04:50:39.163Z,24.33
2019-02-21T04:53:13.557Z,20.73
2019-02-21T04:55:44.735Z,16.90
2019-02-21T04:58:16.010Z,21.37
2019-02-21T05:00:47.385Z,20.20
2019-02-21T05:03:18.347Z,16.73
2019-02-21T05:05:49.461Z,13.83
2019-02-21T05:08:20.169Z,14.03
2019-02-21T05:10:51.111Z,16.97
2019-02-21T05:13:22.324Z,19.33
2019-02-21T05:15:53.195Z,15.30
2019-02-21T05:18:24.159Z,17.03
2019-02-21T05:20:55.910Z,26.97
2019-02-21T05:23:26.877Z,16.83
2019-02-21T05:25:57.699Z,17.63
2019-02-21T05:28:30.797Z,14.73
2019-02-21T05:31:03.476Z,16.70
2019-02-21T05:33:36.206Z,15.37
2019-02-21T05:36:08.848Z,14.73
2019-02-21T05:38:41.586Z,14.57
2019-02-21T05:41:13.955Z,15.80
2019-02-21T05:43:46.213Z,17.30
2019-02-21T05:46:18.565Z,19.23
2019-02-21T05:48:50.739Z,14.43
2019-02-21T05:51:23.882Z,17.13
2019-02-21T05:53:56.526Z,16.93
2019-02-21T05:56:28.918Z,20.87
2019-02-21T05:59:01.335Z,21.63
2019-02-21T06:01:34.307Z,16.37
2019-02-21T06:04:07.300Z,21.80
2019-02-21T06:06:40.023Z,22.60
2019-02-21T06:09:12.558Z,16.90
2019-02-21T06:11:44.967Z,23.47
2019-02-21T06:14:17.239Z,17.60
2019-02-21T06:16:49.872Z,18.57
2019-02-21T06:19:23.527Z,24.87
2019-02-21T06:21:54.311Z,24.17
2019-02-21T06:24:26.695Z,22.20
2019-02-21T06:27:00.910Z,20.70
2019-02-21T06:29:34.672Z,21.80
2019-02-21T06:32:13.814Z,20.67
2019-02-21T06:34:38.336Z,16.07
2019-02-21T06:37:09.199Z,19.37
2019-02-21T06:39:40.694Z,21.07
2019-02-21T06:42:11.812Z,19.80
2019-02-21T06:44:43.598Z,25.33
2019-02-21T06:47:14.825Z,33.43
2019-02-21T06:49:46.147Z,35.37
2019-02-21T06:52:17.675Z,33.10
2019-02-21T06:54:49.763Z,25.57
2019-02-21T06:57:20.831Z,20.23
2019-02-21T06:59:51.849Z,28.77
2019-02-21T07:02:23.359Z,23.77
2019-02-21T07:04:56.608Z,25.87
2019-02-21T07:07:27.069Z,23.00
2019-02-21T07:09:58.946Z,19.83
2019-02-21T07:12:30.229Z,21.83
2019-02-21T07:15:01.263Z,21.83
2019-02-21T07:17:32.539Z,24.80
2019-02-21T07:20:03.422Z,22.93
2019-02-21T07:22:35.823Z,24.47
2019-02-21T07:25:09.256Z,22.87
2019-02-21T07:27:40.094Z,24.07
2019-02-21T07:30:19.571Z,26.73
2019-02-21T07:32:45.646Z,21.47
2019-02-21T07:35:16.732Z,27.73
2019-02-21T07:37:48.028Z,20.33
2019-02-21T07:40:20.321Z,26.13
2019-02-21T07:42:53.417Z,21.93
2019-02-21T07:45:24.388Z,21.97
2019-02-21T07:47:55.655Z,28.73
2019-02-21T07:50:27.521Z,27.23
2019-02-21T07:53:02.409Z,27.83
2019-02-21T07:55:32.430Z,26.47
2019-02-21T07:58:04.246Z,26.37
2019-02-21T08:00:37.130Z,27.57
2019-02-21T08:03:09.176Z,31.40
2019-02-21T08:05:40.758Z,24.43
2019-02-21T08:08:11.831Z,28.73
2019-02-21T08:10:42.725Z,34.00
2019-02-21T08:13:14.051Z,28.37
2019-02-21T08:15:44.688Z,26.43
2019-02-21T08:18:16.449Z,31.30
2019-02-21T08:20:47.555Z,30.83
2019-02-21T08:23:18.931Z,34.10
2019-02-21T08:25:50.209Z,30.60
2019-02-21T08:28:21.286Z,34.53
2019-02-21T08:30:52.466Z,34.93
2019-02-21T08:33:25.711Z,37.07
2019-02-21T08:35:58.033Z,37.43
2019-02-21T08:38:29.431Z,38.77
2019-02-21T08:41:00.665Z,32.93
2019-02-21T08:43:32.020Z,34.30
2019-02-21T08:46:03.647Z,36.40
2019-02-21T08:48:34.682Z,33.13
2019-02-21T08:51:06.524Z,33.70
2019-02-21T08:53:37.970Z,33.47
2019-02-21T08:56:09.752Z,40.60
2019-02-21T08:58:41.270Z,36.50
2019-02-21T09:01:12.633Z,39.03
2019-02-21T09:03:43.660Z,38.73
2019-02-21T09:06:15.635Z,39.60
2019-02-21T09:08:46.726Z,33.40
2019-02-21T09:11:19.665Z,37.63
2019-02-21T09:13:50.812Z,43.30
2019-02-21T09:16:22.465Z,41.33
2019-02-21T09:18:54.549Z,38.07
2019-02-21T09:21:25.893Z,38.63
2019-02-21T09:23:58.509Z,37.37
2019-02-21T09:26:30.410Z,40.70
2019-02-21T09:29:02.361Z,38.77
2019-02-21T09:31:34.870Z,37.43
2019-02-21T09:34:06.617Z,40.87
2019-02-21T09:36:37.943Z,39.83
2019-02-21T09:39:09.094Z,40.23
2019-02-21T09:41:40.182Z,44.00
2019-02-21T09:44:11.415Z,33.77
2019-02-21T09:46:42.736Z,38.83
2019-02-21T09:49:14.439Z,39.43
2019-02-21T09:51:45.805Z,43.57
2019-02-21T09:54:19.150Z,39.80
2019-02-21T09:56:53.098Z,41.20
2019-02-21T09:59:23.469Z,42.43
2019-02-21T10:01:57.543Z,41.53
2019-02-21T10:04:32.239Z,38.43
2019-02-21T10:07:01.261Z,40.73
2019-02-21T10:09:34.041Z,43.43
2019-02-21T10:12:05.200Z,37.27
2019-02-21T10:14:36.730Z,39.07
2019-02-21T10:17:07.690Z,39.40
2019-02-21T10:19:39.438Z,41.37
2019-02-21T10:22:11.266Z,41.00
2019-02-21T10:24:42.507Z,43.10
2019-02-21T10:27:13.674Z,43.63
2019-02-21T10:29:44.912Z,42.10
2019-02-21T10:32:16.453Z,39.47
2019-02-21T10:34:48.017Z,40.17
2019-02-21T10:37:20.303Z,41.77
2019-02-21T10:39:52.077Z,44.10
2019-02-21T10:42:23.770Z,44.30
2019-02-21T10:44:54.719Z,44.30
2019-02-21T10:47:25.644Z,41.07
2019-02-21T10:49:57.107Z,38.50
2019-02-21T10:52:28.526Z,41.07
2019-02-21T10:55:00.416Z,39.23
2019-02-21T10:57:38.643Z,46.50
2019-02-21T11:00:13.422Z,40.97
2019-02-21T11:02:45.355Z,42.97
2019-02-21T11:05:16.316Z,39.57
2019-02-21T11:07:47.019Z,36.90
2019-02-21T11:10:21.039Z,43.40
2019-02-21T11:12:52.506Z,43.10
2019-02-21T11:15:24.817Z,40.60
2019-02-21T11:17:55.817Z,41.13
2019-02-21T11:20:27.048Z,42.13
2019-02-21T11:23:00.087Z,44.50
2019-02-21T11:25:33.293Z,41.43
2019-02-21T11:28:05.209Z,37.93
2019-02-21T11:30:36.734Z,44.20
2019-02-21T11:33:08.169Z,37.70
2019-02-21T11:35:39.310Z,38.77
2019-02-21T11:38:10.342Z,37.60
2019-02-21T11:40:41.415Z,38.13
2019-02-21T11:43:12.724Z,36.73
2019-02-21T11:45:53.591Z,39.60
2019-02-21T11:48:17.524Z,39.23
2019-02-21T11:50:49.369Z,42.23
2019-02-21T11:53:20.350Z,42.53
2019-02-21T11:55:52.471Z,50.33
2019-02-21T11:58:24.744Z,38.80
2019-02-21T12:00:56.998Z,37.87
2019-02-21T12:03:28.108Z,47.53
2019-02-21T12:05:59.476Z,39.97
2019-02-21T12:08:30.947Z,47.10
2019-02-21T12:11:03.721Z,43.63
2019-02-21T12:13:34.959Z,43.07
2019-02-21T12:16:06.771Z,39.57
2019-02-21T12:18:38.036Z,38.87
2019-02-21T12:21:10.158Z,42.77
2019-02-21T12:23:41.606Z,54.63
2019-02-21T12:26:13.626Z,47.67
2019-02-21T12:28:45.656Z,43.87
2019-02-21T12:31:22.867Z,44.83
2019-02-21T12:33:56.001Z,39.37
2019-02-21T12:36:27.619Z,47.50
2019-02-21T12:38:58.977Z,38.67
2019-02-21T12:41:31.095Z,41.17
2019-02-21T12:44:02.865Z,37.00
2019-02-21T12:46:34.058Z,37.50
2019-02-21T12:49:05.640Z,40.70
2019-02-21T12:51:37.126Z,40.73
2019-02-21T12:54:09.852Z,35.27
2019-02-21T12:56:42.315Z,39.03
2019-02-21T12:59:13.498Z,36.70
2019-02-21T13:01:45.857Z,40.90
2019-02-21T13:04:17.501Z,34.97
2019-02-21T13:06:49.030Z,36.97
2019-02-21T13:09:20.368Z,42.90
2019-02-21T13:11:52.171Z,43.07
2019-02-21T13:14:23.311Z,34.60
2019-02-21T13:16:55.111Z,32.73
2019-02-21T13:19:26.570Z,34.93
2019-02-21T13:21:57.991Z,38.53
2019-02-21T13:24:28.770Z,38.20
2019-02-21T13:27:00.190Z,33.67
2019-02-21T13:29:32.319Z,33.90
2019-02-21T13:32:04.206Z,31.30
2019-02-21T13:34:38.730Z,35.33
2019-02-21T13:37:13.485Z,29.43
2019-02-21T13:39:47.710Z,30.95
2019-02-21T13:42:19.772Z,30.93
2019-02-21T13:44:55.153Z,34.43
2019-02-21T13:47:26.431Z,27.90
2019-02-21T13:49:58.326Z,28.70
2019-02-21T13:52:29.642Z,32.23
2019-02-21T13:55:01.613Z,28.50
2019-02-21T13:57:32.982Z,29.43
2019-02-21T14:00:03.962Z,32.93
2019-02-21T14:02:36.391Z,30.73
2019-02-21T14:05:07.910Z,33.90
2019-02-21T14:07:39.833Z,28.30
2019-02-21T14:10:12.131Z,25.10
2019-02-21T14:12:43.992Z,32.70
2019-02-21T14:15:18.367Z,31.73
2019-02-21T14:17:52.038Z,31.57
2019-02-21T14:20:24.033Z,32.43
2019-02-21T14:22:54.732Z,54.40
2019-02-21T14:25:28.310Z,29.93
2019-02-21T14:27:59.392Z,34.73
2019-02-21T14:30:30.591Z,31.53
2019-02-21T14:33:00.965Z,29.43
2019-02-21T14:35:31.384Z,29.47
2019-02-21T14:38:01.865Z,29.80
2019-02-21T14:40:32.224Z,34.40
2019-02-21T14:43:17.422Z,35.93
2019-02-21T14:46:00.627Z,35.00
2019-02-21T14:48:46.752Z,30.70
2019-02-21T14:51:39.168Z,37.33
2019-02-21T14:54:18.111Z,36.60
2019-02-21T14:56:48.800Z,30.40
2019-02-21T14:59:21.424Z,37.43
2019-02-21T15:01:52.290Z,41.33
2019-02-21T15:04:22.671Z,42.33
2019-02-21T15:06:53.983Z,35.83
2019-02-21T15:09:26.257Z,39.63
2019-02-21T15:11:56.626Z,54.00
2019-02-21T15:14:27.135Z,51.07
2019-02-21T15:16:57.680Z,39.60
2019-02-21T15:19:28.102Z,53.70
2019-02-21T15:21:59.602Z,45.80
2019-02-21T15:24:30.009Z,47.63
2019-02-21T15:27:08.126Z,37.90
2019-02-21T15:29:32.592Z,52.63
2019-02-21T15:32:11.227Z,49.20
2019-02-21T15:34:39.026Z,46.27
2019-02-21T15:37:09.302Z,45.40
2019-02-21T15:39:39.620Z,44.00
2019-02-21T15:42:10.064Z,38.43
2019-02-21T15:44:40.404Z,39.67
2019-02-21T15:47:11.767Z,42.87
2019-02-21T15:49:42.205Z,38.73
2019-02-21T15:52:21.741Z,49.20
2019-02-21T15:54:44.711Z,47.17
2019-02-21T15:57:15.056Z,40.87
2019-02-21T15:59:45.610Z,46.57
2019-02-21T16:02:16.110Z,52.47
2019-02-21T16:04:46.532Z,45.27
2019-02-21T16:07:16.876Z,62.67
2019-02-21T16:09:47.226Z,46.27
2019-02-21T16:12:18.284Z,48.50
2019-02-21T16:14:49.169Z,53.05
2019-02-21T16:17:19.438Z,57.23
2019-02-21T16:19:49.825Z,58.47
2019-02-21T16:22:20.176Z,72.97
2019-02-21T16:24:50.552Z,54.37
2019-02-21T16:27:20.994Z,45.93
2019-02-21T16:29:51.275Z,57.23
2019-02-21T16:32:22.056Z,43.70
2019-02-21T16:34:53.512Z,41.40
2019-02-21T16:37:24.473Z,54.20
2019-02-21T16:39:57.353Z,45.70
2019-02-21T16:42:34.916Z,45.17
2019-02-21T16:45:19.304Z,44.90
2019-02-21T16:47:50.185Z,45.93
2019-02-21T16:50:29.772Z,47.07
2019-02-21T16:53:09.513Z,39.27
2019-02-21T16:55:49.614Z,37.67
2019-02-21T16:58:24.647Z,35.70
2019-02-21T17:00:56.807Z,44.70
2019-02-21T17:03:27.292Z,41.87
2019-02-21T17:05:59.441Z,42.73
2019-02-21T17:08:29.913Z,40.43
2019-02-21T17:11:00.590Z,36.20
2019-02-21T17:13:31.735Z,39.10
2019-02-21T17:16:02.670Z,47.13
2019-02-21T17:18:34.151Z,37.43
2019-02-21T17:21:06.431Z,40.50
2019-02-21T17:23:37.350Z,48.10
2019-02-21T17:26:07.925Z,38.20
2019-02-21T17:28:38.552Z,37.47
2019-02-21T17:31:08.951Z,35.83
2019-02-21T17:33:39.297Z,41.00
2019-02-21T17:36:09.851Z,42.77
2019-02-21T17:38:40.538Z,39.20
2019-02-21T17:41:11.227Z,35.37
2019-02-21T17:43:41.715Z,38.70
2019-02-21T17:46:12.017Z,39.07
2019-02-21T17:48:43.247Z,37.60
2019-02-21T17:51:13.756Z,32.60
2019-02-21T17:53:44.252Z,32.37
2019-02-21T17:56:14.608Z,36.20
2019-02-21T17:58:45.215Z,42.43
2019-02-21T18:01:15.666Z,31.83
2019-02-21T18:03:46.037Z,34.57
2019-02-21T18:06:16.375Z,39.57
2019-02-21T18:09:04.305Z,40.70
2019-02-21T18:11:36.255Z,41.47
2019-02-21T18:14:06.478Z,40.80
2019-02-21T18:16:36.904Z,35.27
2019-02-21T18:19:07.237Z,38.27
2019-02-21T18:21:37.554Z,37.50
2019-02-21T18:24:07.838Z,33.50
2019-02-21T18:26:38.193Z,35.40
2019-02-21T18:29:08.462Z,35.70
2019-02-21T18:31:38.812Z,35.63
2019-02-21T18:34:09.211Z,38.77
2019-02-21T18:36:39.528Z,31.40
2019-02-21T18:39:09.826Z,36.90
2019-02-21T18:41:40.602Z,34.85
2019-02-21T18:44:10.887Z,38.60
2019-02-21T18:46:41.242Z,32.17
2019-02-21T18:49:11.635Z,30.87
2019-02-21T18:51:42.000Z,33.80
2019-02-21T18:54:12.288Z,30.77
2019-02-21T18:56:42.922Z,35.43
2019-02-21T18:59:13.233Z,31.23
2019-02-21T19:01:43.701Z,37.57
2019-02-21T19:04:14.027Z,30.67
2019-02-21T19:06:44.323Z,32.10
2019-02-21T19:09:14.625Z,33.50
2019-02-21T19:11:45.034Z,33.23
2019-02-21T19:14:15.292Z,33.30
2019-02-21T19:16:46.617Z,33.67
2019-02-21T19:19:16.889Z,30.27
2019-02-21T19:21:47.163Z,32.60
2019-02-21T19:24:17.518Z,31.57
2019-02-21T19:26:47.908Z,32.03
2019-02-21T19:29:19.484Z,28.23
2019-02-21T19:31:49.780Z,36.13
2019-02-21T19:34:20.061Z,33.77
2019-02-21T19:36:51.440Z,30.37
2019-02-21T19:39:21.744Z,32.97
2019-02-21T19:41:52.090Z,30.67
2019-02-21T19:44:22.515Z,30.60
2019-02-21T19:46:52.926Z,32.27
2019-02-21T19:49:23.192Z,32.40
2019-02-21T19:51:53.690Z,28.53
2019-02-21T19:54:24.915Z,30.90
2019-02-21T19:56:55.208Z,32.23
2019-02-21T19:59:25.547Z,31.17
2019-02-21T20:01:56.016Z,32.50
2019-02-21T20:04:26.657Z,25.08
2019-02-21T20:06:57.124Z,29.30
2019-02-21T20:09:29.501Z,29.17
2019-02-21T20:11:59.827Z,29.87
2019-02-21T20:14:30.165Z,26.50
2019-02-21T20:17:00.610Z,27.02
2019-02-21T20:19:31.441Z,30.67
2019-02-21T20:22:02.708Z,27.13
2019-02-21T20:24:32.984Z,26.47
2019-02-21T20:27:03.395Z,23.87
2019-02-21T20:29:35.279Z,24.83
2019-02-21T20:32:05.596Z,29.23
2019-02-21T20:34:36.078Z,25.30
2019-02-21T20:37:06.347Z,29.07
2019-02-21T20:39:36.743Z,21.90
2019-02-21T20:42:08.172Z,23.13
2019-02-21T20:44:38.812Z,26.50
2019-02-21T20:47:09.165Z,25.10
2019-02-21T20:49:39.633Z,26.87
2019-02-21T20:52:09.951Z,20.80
2019-02-21T20:54:41.272Z,29.80
2019-02-21T20:57:11.560Z,23.50
2019-02-21T20:59:41.952Z,25.27
2019-02-21T21:02:12.263Z,23.17
2019-02-21T21:04:42.959Z,27.00
2019-02-21T21:07:13.269Z,26.83
2019-02-21T21:09:44.699Z,24.67
2019-02-21T21:12:15.078Z,23.90
2019-02-21T21:14:45.395Z,20.27
2019-02-21T21:17:15.739Z,23.23
2019-02-21T21:19:46.206Z,21.07
2019-02-21T21:22:16.491Z,22.50
2019-02-21T21:24:46.831Z,22.47
2019-02-21T21:27:17.221Z,24.73
2019-02-21T21:29:47.519Z,23.10
2019-02-21T21:32:17.813Z,21.83
2019-02-21T21:34:48.160Z,23.40
2019-02-21T21:37:19.191Z,23.23
2019-02-21T21:39:50.690Z,22.57
2019-02-21T21:42:22.147Z,21.07
2019-02-21T21:44:53.633Z,19.53
2019-02-21T21:47:28.408Z,23.17
2019-02-21T21:50:02.227Z,23.15
2019-02-21T21:52:35.229Z,16.85
2019-02-21T21:55:06.524Z,19.43
2019-02-21T21:57:37.947Z,22.80
2019-02-21T22:00:13.011Z,20.60
2019-02-21T22:02:45.939Z,20.03
2019-02-21T22:05:17.900Z,19.60
2019-02-21T22:07:49.876Z,20.13
2019-02-21T22:10:22.479Z,17.07
2019-02-21T22:12:54.300Z,23.63
2019-02-21T22:15:26.018Z,19.47
2019-02-21T22:17:57.543Z,20.10
2019-02-21T22:20:29.556Z,21.97
2019-02-21T22:23:02.096Z,19.87
2019-02-21T22:25:33.301Z,18.83
2019-02-21T22:28:05.474Z,19.27
2019-02-21T22:30:38.062Z,19.42
2019-02-21T22:33:09.750Z,18.60
2019-02-21T22:35:40.838Z,21.87
2019-02-21T22:38:11.698Z,22.87
2019-02-21T22:40:42.818Z,17.47
2019-02-21T22:43:14.040Z,20.03
2019-02-21T22:45:45.501Z,16.67
2019-02-21T22:48:17.057Z,18.97
2019-02-21T22:50:47.959Z,21.10
2019-02-21T22:53:19.664Z,18.83
2019-02-21T22:55:50.779Z,20.63
2019-02-21T22:58:21.809Z,18.77
2019-02-21T23:00:58.206Z,21.20
2019-02-21T23:03:32.962Z,19.13
2019-02-21T23:06:07.080Z,20.30
2019-02-21T23:08:39.227Z,21.37
2019-02-21T23:11:09.736Z,18.45
2019-02-21T23:13:41.900Z,20.60
2019-02-21T23:16:12.332Z,20.27
2019-02-21T23:18:43.241Z,17.63
2019-02-21T23:21:14.692Z,18.17
2019-02-21T23:23:46.487Z,16.20
2019-02-21T23:26:17.653Z,15.68
2019-02-21T23:28:49.338Z,16.10
2019-02-21T23:31:20.538Z,14.70
2019-02-21T23:33:52.696Z,15.35
2019-02-21T23:36:23.468Z,15.60
2019-02-21T23:38:55.640Z,14.43
2019-02-21T23:41:27.682Z,12.65
2019-02-21T23:43:58.540Z,12.43
2019-02-21T23:46:29.679Z,11.80
2019-02-21T23:49:00.678Z,13.30
2019-02-21T23:51:32.619Z,12.77
2019-02-21T23:54:03.763Z,15.28
2019-02-21T23:56:35.818Z,13.13
2019-02-21T23:59:07.319Z,10.43
